Time;durP1;ratioP1;P1;durP2;ratioP2;P2;SDS_P1;SDS_P2;PMS_P1;PMS_P2;Temp;Humidity;BMP_temperature;BMP_pressure;BME280_temperature;BME280_humidity;BME280_pressure;Samples;Min_cycle;Max_cycle;Signal;HPM_P1;HPM_P2
2023/01/17 00:00:04;;;;;;;6.75;1.55;;;;;;;2.46;100.00;98391.34;5054249;28;20035;-59
2023/01/17 00:02:30;;;;;;;3.65;1.50;;;;;;;2.44;100.00;98396.72;5054223;28;20108;-59
2023/01/17 00:10:26;;;;;;;4.00;1.08;;;;;;;2.37;100.00;98392.94;5053714;28;20075;-58
2023/01/17 00:12:54;;;;;;;3.75;1.40;;;;;;;2.36;100.00;98401.75;5051190;28;20467;-58
2023/01/17 00:15:22;;;;;;;8.93;1.77;;;;;;;2.34;100.00;98409.72;5054136;28;20025;-59
2023/01/17 00:17:48;;;;;;;2.67;1.30;;;;;;;2.35;100.00;98413.19;5052331;28;20095;-58
2023/01/17 00:26:02;;;;;;;1.48;1.10;;;;;;;2.28;100.00;98425.97;5052718;28;20047;-60
2023/01/17 01:35:21;;;;;;;2.00;1.40;;;;;;;1.61;100.00;98513.25;5044452;28;20086;-58
2023/01/17 01:37:46;;;;;;;2.50;1.67;;;;;;;1.55;100.00;98517.19;5051321;28;20028;-56
2023/01/17 01:40:13;;;;;;;1.80;1.70;;;;;;;1.53;100.00;98528.72;5048538;28;20415;-58
2023/01/17 01:42:51;;;;;;;1.50;1.40;;;;;;;1.49;100.00;98530.72;5050617;28;20085;-58
2023/01/17 01:45:21;;;;;;;1.80;1.70;;;;;;;1.47;100.00;98538.69;5050115;28;20024;-58
2023/01/17 01:47:48;;;;;;;1.98;1.75;;;;;;;1.44;100.00;98548.56;5040068;28;20499;-58
2023/01/17 01:50:15;;;;;;;3.50;1.67;;;;;;;1.40;100.00;98554.97;5052190;28;20025;-58
2023/01/17 01:52:44;;;;;;;1.98;1.88;;;;;;;1.38;100.00;98551.63;5034553;28;20047;-59
2023/01/17 01:55:15;;;;;;;1.70;1.60;;;;;;;1.37;100.00;98563.06;5047966;28;20033;-58
2023/01/17 01:57:46;;;;;;;1.60;1.50;;;;;;;1.31;100.00;98561.72;5051849;28;20021;-58
2023/01/17 02:00:25;;;;;;;4.78;1.65;;;;;;;1.31;100.00;98569.56;5052600;28;20127;-59
2023/01/17 02:02:54;;;;;;;3.22;1.50;;;;;;;1.29;100.00;98571.47;5049827;28;20475;-59
2023/01/17 02:05:22;;;;;;;3.22;2.08;;;;;;;1.27;100.00;98568.16;5047860;28;20431;-58
2023/01/17 02:07:56;;;;;;;2.05;1.63;;;;;;;1.29;100.00;98569.69;5048249;28;20067;-58
2023/01/17 02:10:21;;;;;;;2.10;1.80;;;;;;;1.31;100.00;98571.38;5052080;28;20025;-58
2023/01/17 02:12:48;;;;;;;2.38;1.83;;;;;;;1.30;100.00;98573.16;5051691;28;20356;-58
2023/01/17 02:15:13;;;;;;;3.00;2.03;;;;;;;1.29;100.00;98585.38;5048419;28;20033;-57
2023/01/17 02:17:55;;;;;;;6.05;2.00;;;;;;;1.29;100.00;98584.56;5051149;28;20049;-57
2023/01/17 02:20:26;;;;;;;4.35;1.98;;;;;;;1.28;100.00;98595.94;5040148;28;20041;-54
2023/01/17 02:23:12;;;;;;;3.80;2.03;;;;;;;1.28;100.00;98601.19;5051876;28;20064;-58
2023/01/17 02:25:58;;;;;;;4.30;1.58;;;;;;;1.26;100.00;98609.13;5050686;28;20495;-58
2023/01/17 02:28:48;;;;;;;3.90;1.30;;;;;;;1.23;100.00;98609.38;5048287;28;20075;-58
2023/01/17 02:31:23;;;;;;;3.08;1.30;;;;;;;1.19;100.00;98626.22;5037318;28;20040;-60
2023/01/17 02:33:58;;;;;;;3.15;1.40;;;;;;;1.14;100.00;98628.34;5043795;28;20021;-59
2023/01/17 02:36:42;;;;;;;2.40;1.40;;;;;;;1.10;100.00;98622.53;5051762;28;20029;-58
2023/01/17 02:39:18;;;;;;;3.95;1.20;;;;;;;1.03;100.00;98605.63;5044327;28;20036;-59
2023/01/17 02:41:47;;;;;;;3.60;1.20;;;;;;;0.97;100.00;98589.56;5051506;28;20108;-60
2023/01/17 02:44:18;;;;;;;0.77;0.70;;;;;;;0.92;100.00;98582.88;5048247;28;20033;-59
2023/01/17 02:46:55;;;;;;;2.30;1.02;;;;;;;0.88;100.00;98580.59;5049245;28;20048;-59
2023/01/17 02:49:25;;;;;;;1.38;0.90;;;;;;;0.87;100.00;98585.00;5054373;28;20090;-59
2023/01/17 02:52:16;;;;;;;3.50;1.10;;;;;;;0.88;100.00;98591.91;5057996;28;20029;-58
2023/01/17 02:54:42;;;;;;;2.60;0.85;;;;;;;0.88;100.00;98602.34;5050251;28;20123;-59
2023/01/17 02:57:35;;;;;;;3.63;0.90;;;;;;;0.89;100.00;98601.38;5050744;28;20602;-59
2023/01/17 03:00:13;;;;;;;2.17;0.88;;;;;;;0.90;100.00;98607.47;5052209;28;20750;-60
2023/01/17 03:02:56;;;;;;;5.03;1.05;;;;;;;0.89;100.00;98613.63;5055581;28;20029;-59
2023/01/17 03:05:30;;;;;;;2.70;1.00;;;;;;;0.85;100.00;98628.69;5054195;28;20502;-59
2023/01/17 03:07:56;;;;;;;1.33;0.88;;;;;;;0.84;100.00;98631.41;5048005;28;20428;-59
2023/01/17 03:10:22;;;;;;;2.53;0.90;;;;;;;0.83;100.00;98638.41;5055837;28;20021;-59
2023/01/17 03:12:48;;;;;;;5.20;1.10;;;;;;;0.80;100.00;98629.97;5055750;28;20062;-58
2023/01/17 03:15:16;;;;;;;1.70;1.20;;;;;;;0.76;100.00;98647.63;5050674;28;20442;-58
2023/01/17 03:17:48;;;;;;;3.67;0.93;;;;;;;0.69;100.00;98639.41;5055198;28;20087;-59
2023/01/17 03:20:13;;;;;;;1.40;1.05;;;;;;;0.65;100.00;98647.56;5055453;28;20025;-59
2023/01/17 03:22:38;;;;;;;1.25;0.90;;;;;;;0.61;100.00;98643.50;5042588;28;20028;-59
2023/01/17 03:25:05;;;;;;;1.63;1.23;;;;;;;0.59;100.00;98635.78;5055019;28;20021;-59
2023/01/17 03:27:31;;;;;;;1.23;1.00;;;;;;;0.55;100.00;98639.56;5054921;28;20040;-59
2023/01/17 03:29:56;;;;;;;1.75;0.95;;;;;;;0.54;100.00;98641.31;5045678;28;20033;-59
2023/01/17 03:32:21;;;;;;;2.58;1.17;;;;;;;0.51;100.00;98649.38;5054227;28;20506;-59
2023/01/17 03:34:47;;;;;;;1.27;1.17;;;;;;;0.48;100.00;98641.78;5053579;28;20028;-57
2023/01/17 03:37:12;;;;;;;3.85;1.20;;;;;;;0.45;100.00;98642.00;5054200;28;20017;-59
2023/01/17 03:39:37;;;;;;;2.83;1.10;;;;;;;0.41;100.00;98647.53;5055332;28;20037;-59
2023/01/17 03:42:03;;;;;;;3.63;1.30;;;;;;;0.38;100.00;98645.94;5054361;28;20021;-58
2023/01/17 03:44:28;;;;;;;2.17;1.25;;;;;;;0.37;100.00;98641.69;5053256;28;20120;-59
2023/01/17 03:46:53;;;;;;;2.45;1.30;;;;;;;0.35;100.00;98647.03;5054384;28;20445;-58
2023/01/17 03:49:19;;;;;;;3.97;1.20;;;;;;;0.33;100.00;98648.06;5046318;28;20539;-58
2023/01/17 03:51:44;;;;;;;2.00;1.20;;;;;;;0.28;100.00;98645.75;5053658;28;20024;-58
2023/01/17 03:54:10;;;;;;;4.13;1.60;;;;;;;0.27;100.00;98643.28;5054620;28;20025;-57
2023/01/17 03:56:35;;;;;;;5.05;1.98;;;;;;;0.23;100.00;98647.03;5035935;28;20079;-57
2023/01/17 03:59:00;;;;;;;3.45;1.80;;;;;;;0.20;100.00;98642.88;5053182;28;20029;-59
2023/01/17 04:01:26;;;;;;;3.25;1.70;;;;;;;0.19;100.00;98638.56;5053129;28;20120;-59
2023/01/17 04:03:51;;;;;;;4.93;1.83;;;;;;;0.16;100.00;98644.00;5054245;28;20024;-58
2023/01/17 04:06:16;;;;;;;4.35;2.22;;;;;;;0.15;100.00;98644.94;5052732;28;20563;-59
2023/01/17 04:08:42;;;;;;;4.32;2.50;;;;;;;0.13;100.00;98644.22;5046969;28;20150;-59
2023/01/17 04:11:07;;;;;;;4.95;2.13;;;;;;;0.14;100.00;98643.28;5054046;28;20029;-55
2023/01/17 04:13:32;;;;;;;4.63;2.53;;;;;;;0.14;100.00;98645.91;5047271;28;20161;-59
2023/01/17 04:15:58;;;;;;;5.97;2.35;;;;;;;0.12;100.00;98655.63;5053726;28;20067;-57
2023/01/17 04:18:24;;;;;;;4.63;2.38;;;;;;;0.12;100.00;98656.44;5050699;28;20017;-59
2023/01/17 04:20:50;;;;;;;4.78;2.20;;;;;;;0.11;100.00;98652.16;5049161;28;20026;-57
2023/01/17 04:23:16;;;;;;;4.88;2.80;;;;;;;0.10;100.00;98647.03;5045405;28;20029;-58
2023/01/17 04:25:41;;;;;;;5.75;2.47;;;;;;;0.08;100.00;98649.75;5035055;28;20035;-58
2023/01/17 04:28:06;;;;;;;3.95;2.20;;;;;;;0.07;100.00;98647.28;5053743;28;20033;-59
2023/01/17 04:30:32;;;;;;;4.03;2.70;;;;;;;0.05;100.00;98644.75;5035758;28;20043;-58
2023/01/17 04:32:58;;;;;;;6.47;2.30;;;;;;;0.04;100.00;98637.84;5051902;28;20040;-59
2023/01/17 04:35:24;;;;;;;5.75;2.17;;;;;;;0.03;100.00;98645.78;5053563;28;20434;-58
2023/01/17 04:37:50;;;;;;;5.22;2.05;;;;;;;0.02;100.00;98642.34;5053883;28;20100;-58
2023/01/17 04:40:16;;;;;;;6.63;2.03;;;;;;;-0.01;100.00;98643.38;5052865;28;20063;-57
2023/01/17 04:42:43;;;;;;;8.10;2.30;;;;;;;-0.05;100.00;98647.16;5043582;28;20480;-58
2023/01/17 04:45:10;;;;;;;12.73;2.35;;;;;;;-0.05;100.00;98655.00;5051804;28;20517;-57
2023/01/17 04:47:35;;;;;;;3.80;2.13;;;;;;;-0.06;100.00;98653.31;5054127;28;20036;-58
2023/01/17 04:50:00;;;;;;;2.00;1.67;;;;;;;-0.06;100.00;98644.66;5047833;28;20453;-58
2023/01/17 04:52:26;;;;;;;3.75;2.28;;;;;;;-0.08;100.00;98649.97;5053553;28;20032;-58
2023/01/17 04:54:51;;;;;;;5.60;2.28;;;;;;;-0.08;100.00;98657.81;5053800;28;20029;-57
2023/01/17 04:57:17;;;;;;;7.88;2.83;;;;;;;-0.09;100.00;98658.72;5053551;28;20037;-58
2023/01/17 04:59:44;;;;;;;5.82;3.30;;;;;;;-0.09;100.00;98657.91;5045837;28;20471;-58
2023/01/17 05:02:09;;;;;;;6.40;3.95;;;;;;;-0.09;100.00;98663.13;5053199;28;20451;-58
2023/01/17 05:04:34;;;;;;;11.63;5.07;;;;;;;-0.10;100.00;98664.91;5052988;28;20045;-59
2023/01/17 05:07:00;;;;;;;9.70;6.05;;;;;;;-0.09;100.00;98660.50;5051343;28;20143;-58
2023/01/17 05:09:25;;;;;;;10.23;5.40;;;;;;;-0.10;100.00;98666.66;5052801;28;20021;-59
2023/01/17 05:11:50;;;;;;;9.80;5.82;;;;;;;-0.11;100.00;98660.63;5052972;28;20025;-58
2023/01/17 05:14:15;;;;;;;11.98;6.20;;;;;;;-0.12;100.00;98658.09;5046470;28;20033;-58
2023/01/17 05:16:41;;;;;;;9.30;6.63;;;;;;;-0.11;100.00;98665.00;5052800;28;20048;-58
2023/01/17 05:19:06;;;;;;;11.07;7.22;;;;;;;-0.14;100.00;98658.22;5052804;28;20025;-58
2023/01/17 05:21:31;;;;;;;10.40;7.20;;;;;;;-0.13;100.00;98662.50;5038354;28;20037;-58
2023/01/17 05:23:57;;;;;;;10.30;7.25;;;;;;;-0.14;100.00;98657.38;5049294;28;20128;-58
2023/01/17 05:26:22;;;;;;;11.55;7.07;;;;;;;-0.14;100.00;98662.59;5044364;28;20040;-58
2023/01/17 05:28:48;;;;;;;10.10;6.90;;;;;;;-0.15;100.00;98653.09;5052519;28;20055;-59
2023/01/17 05:31:13;;;;;;;9.95;6.00;;;;;;;-0.15;100.00;98660.91;5045354;28;20066;-58
2023/01/17 05:33:39;;;;;;;10.73;5.90;;;;;;;-0.15;100.00;98663.53;5052461;28;20029;-57
2023/01/17 05:36:04;;;;;;;10.40;6.40;;;;;;;-0.15;100.00;98663.53;5049347;28;20043;-58
2023/01/17 05:38:30;;;;;;;8.65;5.45;;;;;;;-0.16;100.00;98661.88;5052065;28;20486;-58
2023/01/17 05:40:58;;;;;;;7.05;5.57;;;;;;;-0.15;100.00;98681.78;5052734;28;20025;-58
2023/01/17 05:43:23;;;;;;;6.32;5.35;;;;;;;-0.16;100.00;98675.75;5052186;28;20398;-57
2023/01/17 05:45:49;;;;;;;7.72;4.65;;;;;;;-0.18;100.00;98685.47;5051089;28;20033;-58
2023/01/17 05:48:14;;;;;;;8.18;5.00;;;;;;;-0.23;100.00;98688.38;5051779;28;20029;-57
2023/01/17 05:50:39;;;;;;;7.78;4.70;;;;;;;-0.24;100.00;98689.28;5052195;28;20029;-58
2023/01/17 05:53:07;;;;;;;11.60;4.60;;;;;;;-0.26;100.00;98698.19;5048776;28;20021;-58
2023/01/17 05:55:33;;;;;;;12.10;4.82;;;;;;;-0.29;100.00;98701.81;5052285;28;20079;-57
2023/01/17 05:58:00;;;;;;;9.50;5.80;;;;;;;-0.29;100.00;98700.97;5052095;28;20029;-58
2023/01/17 06:00:26;;;;;;;8.70;6.45;;;;;;;-0.32;100.00;98696.78;5047186;28;20119;-58
2023/01/17 06:02:53;;;;;;;11.48;7.45;;;;;;;-0.34;100.00;98706.50;5056205;28;20041;-57
2023/01/17 06:05:20;;;;;;;12.98;8.02;;;;;;;-0.38;100.00;98695.44;5052171;28;20025;-58
2023/01/17 06:07:45;;;;;;;10.93;8.68;;;;;;;-0.40;100.00;98693.84;5049504;28;20032;-57
2023/01/17 06:10:13;;;;;;;13.60;8.20;;;;;;;-0.43;100.00;98688.88;5052294;28;20029;-58
2023/01/17 06:12:38;;;;;;;12.60;8.85;;;;;;;-0.43;100.00;98686.25;5051707;28;20025;-59
2023/01/17 06:15:04;;;;;;;13.77;8.52;;;;;;;-0.46;100.00;98691.66;5046059;28;20113;-58
2023/01/17 06:17:30;;;;;;;12.73;8.93;;;;;;;-0.49;100.00;98692.69;5049689;28;20122;-58
2023/01/17 06:19:55;;;;;;;14.00;8.82;;;;;;;-0.49;100.00;98690.09;5048819;28;20574;-58
2023/01/17 06:22:20;;;;;;;12.32;8.43;;;;;;;-0.50;100.00;98698.00;5037061;28;20036;-58
2023/01/17 06:24:45;;;;;;;16.40;9.00;;;;;;;-0.54;100.00;98699.16;5051464;28;20021;-57
2023/01/17 06:27:11;;;;;;;15.57;8.45;;;;;;;-0.56;100.00;98694.03;5051726;28;20033;-56
2023/01/17 06:29:36;;;;;;;16.45;8.52;;;;;;;-0.59;100.00;98697.66;5048371;28;20039;-58
2023/01/17 06:32:01;;;;;;;12.98;8.80;;;;;;;-0.61;100.00;98699.53;5051666;28;20517;-58
2023/01/17 06:34:27;;;;;;;18.45;8.80;;;;;;;-0.62;100.00;98697.03;5044132;28;20073;-58
2023/01/17 06:36:52;;;;;;;13.40;8.57;;;;;;;-0.64;100.00;98696.31;5050927;28;20013;-58
2023/01/17 06:39:18;;;;;;;12.02;8.70;;;;;;;-0.68;100.00;98697.44;5048825;28;20029;-57
2023/01/17 06:41:43;;;;;;;14.57;8.55;;;;;;;-0.70;100.00;98701.91;5036253;28;20018;-57
2023/01/17 06:44:08;;;;;;;12.52;8.43;;;;;;;-0.72;100.00;98702.00;5035849;28;20486;-60
2023/01/17 06:46:34;;;;;;;11.98;8.20;;;;;;;-0.75;100.00;98704.81;5038600;28;20063;-58
2023/01/17 06:48:59;;;;;;;19.73;9.00;;;;;;;-0.75;100.00;98702.19;5050662;28;20100;-58
2023/01/17 06:51:24;;;;;;;11.45;8.25;;;;;;;-0.78;100.00;98703.25;5044027;28;20108;-58
2023/01/17 06:53:50;;;;;;;16.33;9.48;;;;;;;-0.79;100.00;98711.16;5040657;28;20050;-57
2023/01/17 06:56:15;;;;;;;14.43;8.75;;;;;;;-0.81;100.00;98708.66;5046145;28;20041;-59
2023/01/17 06:58:40;;;;;;;17.35;9.43;;;;;;;-0.82;100.00;98706.97;5047660;28;20502;-58
2023/01/17 07:01:08;;;;;;;15.18;9.15;;;;;;;-0.82;100.00;98709.56;5039843;28;20135;-57
2023/01/17 07:03:33;;;;;;;17.85;8.90;;;;;;;-0.84;100.00;98703.63;5038075;28;20033;-58
2023/01/17 07:06:00;;;;;;;12.65;8.85;;;;;;;-0.85;100.00;98709.81;5037344;28;20041;-58
2023/01/17 07:08:25;;;;;;;15.43;9.35;;;;;;;-0.86;100.00;98704.69;5040766;28;20586;-58
2023/01/17 07:10:58;;;;;;;15.80;9.25;;;;;;;-0.86;100.00;98710.72;5025623;28;20033;-59
2023/01/17 07:13:23;;;;;;;14.65;9.75;;;;;;;-0.88;100.00;98712.59;5036208;28;20952;-59
2023/01/17 07:15:48;;;;;;;12.88;8.73;;;;;;;-0.89;100.00;98718.72;5036000;28;20037;-59
2023/01/17 07:18:15;;;;;;;18.25;9.55;;;;;;;-0.92;100.00;98716.31;5037043;28;21754;-56
2023/01/17 07:20:42;;;;;;;16.55;8.85;;;;;;;-0.95;100.00;98712.16;5040954;28;20410;-58
2023/01/17 07:23:07;;;;;;;14.80;9.00;;;;;;;-0.96;100.00;98709.63;5033322;28;20041;-58
2023/01/17 07:25:33;;;;;;;14.77;9.48;;;;;;;-0.98;100.00;98712.34;5039048;28;20488;-58
2023/01/17 07:27:58;;;;;;;14.88;9.35;;;;;;;-0.99;100.00;98713.25;5038225;28;20025;-58
2023/01/17 07:30:24;;;;;;;16.80;9.10;;;;;;;-1.01;100.00;98716.91;5038677;28;20083;-58
2023/01/17 07:32:51;;;;;;;14.70;8.43;;;;;;;-1.03;100.00;98719.63;5038692;28;20527;-59
2023/01/17 07:35:17;;;;;;;14.73;9.13;;;;;;;-1.06;100.00;98714.59;5044494;28;20057;-58
2023/01/17 07:37:47;;;;;;;15.00;9.68;;;;;;;-1.06;100.00;98727.63;5039075;28;20409;-57
2023/01/17 07:40:12;;;;;;;15.57;8.82;;;;;;;-1.07;100.00;98727.72;5035397;28;20041;-58
2023/01/17 07:42:38;;;;;;;16.98;9.85;;;;;;;-1.07;100.00;98727.72;5038318;28;20084;-57
2023/01/17 07:45:04;;;;;;;18.52;10.13;;;;;;;-1.10;100.00;98727.91;5039326;28;20046;-58
2023/01/17 07:47:29;;;;;;;16.13;10.35;;;;;;;-1.09;100.00;98734.81;5038708;28;20068;-58
2023/01/17 07:49:54;;;;;;;18.70;11.20;;;;;;;-1.10;100.00;98727.91;5035181;28;20036;-59
2023/01/17 07:52:20;;;;;;;20.92;10.13;;;;;;;-1.12;100.00;98730.59;5035041;28;20362;-58
2023/01/17 07:54:45;;;;;;;18.40;9.90;;;;;;;-1.13;100.00;98736.75;5038995;28;20025;-58
2023/01/17 07:57:11;;;;;;;13.95;9.10;;;;;;;-1.14;100.00;98729.88;5037630;28;20025;-58
2023/01/17 07:59:36;;;;;;;16.05;10.38;;;;;;;-1.14;100.00;98735.91;5037084;28;20474;-58
2023/01/17 08:02:02;;;;;;;21.33;10.30;;;;;;;-1.11;100.00;98734.88;5037087;28;20021;-59
2023/01/17 08:04:33;;;;;;;16.85;10.25;;;;;;;-1.12;100.00;98731.47;5039607;28;20103;-57
2023/01/17 08:06:59;;;;;;;19.35;10.38;;;;;;;-1.11;100.00;98732.28;5036458;28;20030;-58
2023/01/17 08:09:24;;;;;;;20.10;10.80;;;;;;;-1.10;100.00;98733.13;5041844;28;20025;-57
2023/01/17 08:11:49;;;;;;;16.25;10.60;;;;;;;-1.10;100.00;98733.94;5045283;28;20054;-57
2023/01/17 08:14:15;;;;;;;17.30;11.43;;;;;;;-1.10;100.00;98733.94;5047213;28;20108;-58
2023/01/17 08:16:40;;;;;;;15.90;10.15;;;;;;;-1.08;100.00;98731.25;5036758;28;20399;-59
2023/01/17 08:19:05;;;;;;;16.25;11.05;;;;;;;-1.06;100.00;98738.03;5043019;28;20430;-57
2023/01/17 08:21:31;;;;;;;19.75;10.95;;;;;;;-1.03;100.00;98740.47;5043318;28;20067;-58
2023/01/17 08:23:56;;;;;;;18.33;11.00;;;;;;;-1.04;100.00;98728.34;5038861;28;20041;-57
2023/01/17 08:26:22;;;;;;;18.90;11.77;;;;;;;-1.01;100.00;98738.59;5035007;28;20021;-58
2023/01/17 08:28:54;;;;;;;19.88;11.50;;;;;;;-1.00;100.00;98744.63;5044311;28;20040;-56
2023/01/17 08:31:19;;;;;;;20.63;11.65;;;;;;;-0.99;100.00;98741.09;5044936;28;20037;-57
2023/01/17 08:33:45;;;;;;;19.05;11.85;;;;;;;-0.99;100.00;98749.75;5053397;28;20033;-58
2023/01/17 08:36:10;;;;;;;17.88;12.52;;;;;;;-0.98;100.00;98748.00;5049552;28;20122;-58
2023/01/17 08:38:35;;;;;;;20.13;11.93;;;;;;;-0.96;100.00;98744.34;5053291;28;20025;-57
2023/01/17 08:41:01;;;;;;;18.25;12.45;;;;;;;-0.95;100.00;98753.00;5053850;28;20025;-58
2023/01/17 08:43:27;;;;;;;17.05;12.02;;;;;;;-0.94;100.00;98754.66;5051053;28;20052;-58
2023/01/17 08:45:54;;;;;;;20.17;11.85;;;;;;;-0.92;100.00;98755.41;5043466;28;20033;-59
2023/01/17 08:48:21;;;;;;;18.63;12.65;;;;;;;-0.92;100.00;98752.81;5053332;28;20056;-58
2023/01/17 08:50:49;;;;;;;20.55;12.35;;;;;;;-0.89;100.00;98749.19;5053744;28;20029;-58
2023/01/17 08:53:16;;;;;;;17.33;11.63;;;;;;;-0.88;100.00;98749.09;5046022;28;20067;-59
2023/01/17 08:55:42;;;;;;;19.80;12.23;;;;;;;-0.85;100.00;98750.66;5052060;28;20025;-59
2023/01/17 08:58:09;;;;;;;20.75;12.85;;;;;;;-0.82;100.00;98753.88;5051773;28;20116;-55
2023/01/17 09:00:36;;;;;;;18.92;12.55;;;;;;;-0.79;100.00;98748.47;5040501;28;20079;-57
2023/01/17 09:03:01;;;;;;;21.02;12.25;;;;;;;-0.78;100.00;98750.16;5037264;28;20617;-58
2023/01/17 09:05:26;;;;;;;19.88;11.95;;;;;;;-0.74;100.00;98756.00;5033225;28;20021;-58
2023/01/17 09:07:53;;;;;;;19.63;12.55;;;;;;;-0.69;100.00;98747.91;5038321;28;20075;-58
2023/01/17 09:10:18;;;;;;;20.77;13.68;;;;;;;-0.67;100.00;98757.28;5051601;28;20020;-57
2023/01/17 09:12:43;;;;;;;18.45;12.25;;;;;;;-0.65;100.00;98755.44;5059288;28;20090;-58
2023/01/17 09:15:09;;;;;;;26.35;15.40;;;;;;;-0.59;100.00;98754.19;5048551;28;20029;-59
2023/01/17 09:17:35;;;;;;;21.10;13.15;;;;;;;-0.56;100.00;98760.06;5050317;28;20045;-58
2023/01/17 09:20:00;;;;;;;19.17;12.93;;;;;;;-0.49;100.00;98757.88;5051544;28;20024;-57
2023/01/17 09:22:25;;;;;;;21.80;13.90;;;;;;;-0.42;100.00;98753.97;5038750;28;20020;-58
2023/01/17 09:24:52;;;;;;;19.48;12.68;;;;;;;-0.36;100.00;98757.94;5049797;28;20033;-59
2023/01/17 09:27:17;;;;;;;20.20;13.38;;;;;;;-0.30;100.00;98756.69;5048112;28;20098;-58
2023/01/17 09:29:42;;;;;;;23.00;13.65;;;;;;;-0.20;100.00;98760.34;5034410;28;20116;-60
2023/01/17 09:32:08;;;;;;;22.67;13.82;;;;;;;-0.12;100.00;98765.91;5037080;28;20020;-58
2023/01/17 09:34:33;;;;;;;21.92;13.43;;;;;;;-0.04;100.00;98758.41;5031641;28;20065;-58
2023/01/17 09:36:58;;;;;;;19.83;12.70;;;;;;;0.07;100.00;98762.09;5039065;28;20036;-59
2023/01/17 09:39:24;;;;;;;21.42;13.77;;;;;;;0.16;100.00;98770.13;5042930;28;20375;-59
2023/01/17 09:42:00;;;;;;;21.65;12.50;;;;;;;0.31;100.00;98762.22;5050577;28;20033;-59
2023/01/17 09:44:44;;;;;;;19.05;12.95;;;;;;;0.42;100.00;98761.47;5051012;28;20466;-58
2023/01/17 09:47:25;;;;;;;21.25;13.63;;;;;;;0.57;100.00;98764.81;5045486;28;20707;-60
2023/01/17 09:49:55;;;;;;;18.40;12.65;;;;;;;0.73;100.00;98770.66;5041183;28;20100;-60
2023/01/17 09:52:23;;;;;;;19.42;12.68;;;;;;;0.83;100.00;98769.06;5050906;28;20433;-60
2023/01/17 09:54:50;;;;;;;25.00;12.88;;;;;;;0.96;100.00;98768.22;5047295;28;20116;-60
2023/01/17 09:57:39;;;;;;;19.73;12.35;;;;;;;1.05;100.00;98781.50;5048347;28;20374;-58
2023/01/17 10:00:18;;;;;;;19.50;11.52;;;;;;;1.11;100.00;98777.59;5042218;28;20102;-60
2023/01/17 10:03:28;;;;;;;21.08;12.05;;;;;;;1.25;100.00;98779.22;5031857;28;20119;-60
2023/01/17 10:06:18;;;;;;;17.25;10.35;;;;;;;1.39;100.00;98778.25;4970251;28;20027;-59
2023/01/17 10:08:49;;;;;;;16.73;10.88;;;;;;;1.51;100.00;98779.97;5032098;28;20067;-59
2023/01/17 10:11:35;;;;;;;14.35;10.32;;;;;;;1.62;100.00;98781.81;5037210;28;20033;-60
2023/01/17 10:14:13;;;;;;;16.20;10.13;;;;;;;1.70;100.00;98782.09;5037619;28;20053;-60
2023/01/17 10:16:51;;;;;;;14.20;10.50;;;;;;;1.75;100.00;98782.59;5032082;28;20338;-58
2023/01/17 10:19:44;;;;;;;17.73;10.43;;;;;;;1.84;100.00;98779.28;5036861;28;20032;-59
2023/01/17 10:22:34;;;;;;;14.32;9.10;;;;;;;1.91;100.00;98790.16;5034907;28;20365;-60
2023/01/17 10:25:12;;;;;;;18.70;9.52;;;;;;;2.02;100.00;98787.56;5033325;28;20025;-60
2023/01/17 10:27:41;;;;;;;14.65;10.38;;;;;;;2.10;100.00;98786.16;5033214;28;20033;-60
2023/01/17 10:30:22;;;;;;;14.70;10.25;;;;;;;2.19;100.00;98781.06;5034313;28;20033;-59
2023/01/17 10:32:49;;;;;;;12.45;9.55;;;;;;;2.27;100.00;98784.91;5035168;28;20500;-60
2023/01/17 10:35:31;;;;;;;14.13;8.27;;;;;;;2.31;100.00;98781.94;5032073;28;20029;-60
2023/01/17 10:38:02;;;;;;;19.30;9.15;;;;;;;2.31;100.00;98774.06;5031709;28;20029;-60
2023/01/17 10:40:53;;;;;;;13.05;8.07;;;;;;;2.36;100.00;98779.78;5034897;28;20067;-59
2023/01/17 10:43:29;;;;;;;16.10;8.05;;;;;;;2.38;100.00;98793.63;5033815;28;20103;-59
2023/01/17 10:45:55;;;;;;;11.18;7.82;;;;;;;2.45;100.00;98790.53;5035091;28;20333;-59
2023/01/17 10:48:36;;;;;;;15.23;9.00;;;;;;;2.49;100.00;98787.56;5035028;28;20025;-60
2023/01/17 10:51:26;;;;;;;12.50;8.48;;;;;;;2.51;100.00;98797.94;5031885;28;20029;-60
2023/01/17 10:54:09;;;;;;;13.93;8.80;;;;;;;2.59;100.00;98803.44;5033196;28;20033;-60
2023/01/17 10:56:38;;;;;;;13.75;9.52;;;;;;;2.63;100.00;98793.53;5038138;28;20025;-58
2023/01/17 10:59:17;;;;;;;16.40;9.20;;;;;;;2.70;100.00;98792.97;5034309;28;20471;-59
2023/01/17 11:01:42;;;;;;;17.02;9.50;;;;;;;2.72;100.00;98790.22;5032979;28;20468;-58
2023/01/17 11:04:36;;;;;;;13.98;9.40;;;;;;;2.78;100.00;98782.72;5031409;28;20075;-59
2023/01/17 11:07:16;;;;;;;14.32;9.95;;;;;;;2.79;100.00;98788.78;5027704;28;20103;-60
2023/01/17 11:09:56;;;;;;;12.27;9.70;;;;;;;2.88;100.00;98780.22;5035602;28;20044;-60
2023/01/17 11:12:21;;;;;;;;;;;;;;;3.01;100.00;98784.50;5037116;28;20025;-60
2023/01/17 11:14:53;;;;;;;18.67;9.70;;;;;;;3.12;100.00;98780.06;5036828;28;19947;-58
2023/01/17 11:17:19;;;;;;;13.60;9.88;;;;;;;3.23;100.00;98768.75;5037318;28;20381;-58
2023/01/17 11:19:50;;;;;;;15.77;9.35;;;;;;;3.42;100.00;98772.50;5041538;28;20021;-59
2023/01/17 11:22:16;;;;;;;12.63;8.88;;;;;;;3.56;100.00;98766.16;5035144;28;20390;-59
2023/01/17 11:24:53;;;;;;;11.45;8.20;;;;;;;3.74;100.00;98776.94;5034472;28;20033;-58
2023/01/17 11:27:27;;;;;;;11.05;7.47;;;;;;;3.84;95.25;98776.06;5038616;28;20036;-58
2023/01/17 11:30:05;;;;;;;14.70;7.93;;;;;;;3.99;96.52;98775.78;5015736;28;20051;-58
2023/01/17 11:32:33;;;;;;;10.38;7.90;;;;;;;4.08;94.07;98769.78;5035589;28;20026;-58
2023/01/17 11:35:13;;;;;;;12.23;7.40;;;;;;;4.15;93.70;98770.91;5038010;28;20037;-59
2023/01/17 11:37:47;;;;;;;10.00;6.93;;;;;;;4.29;94.54;98768.94;5049720;28;20047;-59
2023/01/17 11:40:25;;;;;;;15.43;7.70;;;;;;;4.41;93.41;98762.63;5056020;28;20449;-59
2023/01/17 11:43:05;;;;;;;13.82;7.70;;;;;;;4.48;91.30;98766.41;5036820;28;20025;-59
2023/01/17 11:45:33;;;;;;;9.23;7.47;;;;;;;4.49;89.82;98757.56;5038874;28;20482;-58
2023/01/17 11:48:17;;;;;;;12.55;7.28;;;;;;;4.60;92.06;98757.47;5039724;28;20495;-57
2023/01/17 11:50:46;;;;;;;10.43;6.63;;;;;;;4.56;88.27;98755.22;5048259;28;20032;-57
2023/01/17 11:53:17;;;;;;;10.77;6.10;;;;;;;4.61;88.21;98758.31;5044158;28;20490;-59
2023/01/17 11:55:54;;;;;;;9.35;5.75;;;;;;;4.61;86.72;98761.78;5048092;28;20044;-59
2023/01/17 11:58:22;;;;;;;11.57;6.35;;;;;;;4.62;86.84;98754.72;5045228;28;20040;-56
2023/01/17 12:00:59;;;;;;;10.70;6.18;;;;;;;4.70;88.59;98749.63;5044652;28;20501;-59
2023/01/17 12:04:00;;;;;;;11.18;6.35;;;;;;;4.75;87.54;98746.63;5045232;28;20041;-59
2023/01/17 12:06:43;;;;;;;9.18;6.53;;;;;;;4.82;88.73;98748.56;5043105;28;20021;-57
2023/01/17 12:09:24;;;;;;;10.93;6.47;;;;;;;4.90;87.59;98744.47;5034654;28;20033;-58
2023/01/17 12:15:25;;;;;;;7.35;5.38;;;;;;;5.04;84.25;98751.16;5034796;28;20040;-59
2023/01/17 12:17:59;;;;;;;7.10;4.70;;;;;;;5.12;83.60;98751.31;5034973;28;20049;-58
2023/01/17 12:20:36;;;;;;;6.80;4.20;;;;;;;5.12;80.68;98756.56;5035740;28;20275;-58
2023/01/17 12:23:29;;;;;;;7.50;4.15;;;;;;;5.12;80.56;98748.69;5034318;28;20160;-59
2023/01/17 12:26:04;;;;;;;28.92;5.15;;;;;;;5.11;78.49;98747.84;5039412;28;20029;-58
2023/01/17 12:28:45;;;;;;;6.70;4.47;;;;;;;5.07;77.06;98741.19;5039312;28;20041;-60
2023/01/17 12:31:33;;;;;;;6.25;4.60;;;;;;;5.14;79.54;98746.75;5040933;28;20032;-58
2023/01/17 12:34:30;;;;;;;7.38;4.10;;;;;;;5.19;80.22;98744.53;5024916;28;20398;-58
2023/01/17 12:37:25;;;;;;;7.25;4.28;;;;;;;5.21;79.13;98744.41;5041887;28;20023;-59
2023/01/17 12:39:57;;;;;;;8.90;4.00;;;;;;;5.20;75.19;98740.94;5039798;28;20538;-59
2023/01/17 12:42:29;;;;;;;9.10;3.60;;;;;;;5.17;76.01;98738.59;5036557;28;20087;-58
2023/01/17 12:45:21;;;;;;;11.05;4.00;;;;;;;5.22;77.17;98739.00;5035749;28;20041;-59
2023/01/17 12:47:53;;;;;;;7.85;3.25;;;;;;;5.18;72.76;98733.19;5037120;28;20035;-59
2023/01/17 12:50:27;;;;;;;4.35;3.42;;;;;;;5.22;72.88;98736.38;5039948;28;20116;-58
2023/01/17 12:53:01;;;;;;;5.03;3.65;;;;;;;5.24;73.75;98738.88;5016785;28;20067;-59
2023/01/17 12:55:48;;;;;;;4.57;3.78;;;;;;;5.28;76.80;98733.22;5038062;28;20091;-60
2023/01/17 12:58:39;;;;;;;7.20;4.10;;;;;;;5.30;76.37;98738.34;5036195;28;20033;-60